sensor_id;sensor_type;location;lat;lon;timestamp;P1;durP1;ratioP1;P2;durP2;ratioP2
67768;SDS011;54569;52.018;5.584;2023-08-07T00:00:46;3.45;;;1.55;;
67768;SDS011;54569;52.018;5.584;2023-08-07T00:03:12;5.25;;;1.30;;
67768;SDS011;54569;52.018;5.584;2023-08-07T00:05:44;7.50;;;1.85;;
67768;SDS011;54569;52.018;5.584;2023-08-07T00:08:11;5.25;;;1.60;;
67768;SDS011;54569;52.018;5.584;2023-08-07T00:10:37;3.75;;;1.40;;
67768;SDS011;54569;52.018;5.584;2023-08-07T00:13:02;6.13;;;1.60;;
67768;SDS011;54569;52.018;5.584;2023-08-07T00:15:28;5.38;;;1.65;;
67768;SDS011;54569;52.018;5.584;2023-08-07T00:17:54;3.55;;;1.60;;
67768;SDS011;54569;52.018;5.584;2023-08-07T00:20:20;7.15;;;1.77;;
67768;SDS011;54569;52.018;5.584;2023-08-07T00:22:46;8.60;;;1.75;;
67768;SDS011;54569;52.018;5.584;2023-08-07T00:25:11;7.07;;;1.60;;
67768;SDS011;54569;52.018;5.584;2023-08-07T00:27:37;5.88;;;1.73;;
67768;SDS011;54569;52.018;5.584;2023-08-07T00:30:03;7.30;;;2.10;;
67768;SDS011;54569;52.018;5.584;2023-08-07T00:32:29;7.40;;;1.88;;
67768;SDS011;54569;52.018;5.584;2023-08-07T00:34:54;6.00;;;2.08;;
67768;SDS011;54569;52.018;5.584;2023-08-07T00:37:20;10.50;;;2.05;;
67768;SDS011;54569;52.018;5.584;2023-08-07T00:39:46;8.68;;;1.98;;
67768;SDS011;54569;52.018;5.584;2023-08-07T00:42:11;6.93;;;2.28;;
67768;SDS011;54569;52.018;5.584;2023-08-07T00:44:37;7.57;;;2.00;;
67768;SDS011;54569;52.018;5.584;2023-08-07T00:47:04;7.22;;;1.85;;
67768;SDS011;54569;52.018;5.584;2023-08-07T00:49:30;5.80;;;2.20;;
67768;SDS011;54569;52.018;5.584;2023-08-07T00:51:56;7.47;;;2.05;;
67768;SDS011;54569;52.018;5.584;2023-08-07T00:54:22;9.60;;;2.92;;
67768;SDS011;54569;52.018;5.584;2023-08-07T00:56:48;11.45;;;2.47;;
67768;SDS011;54569;52.018;5.584;2023-08-07T00:59:15;6.38;;;2.53;;
67768;SDS011;54569;52.018;5.584;2023-08-07T01:01:41;6.07;;;1.85;;
67768;SDS011;54569;52.018;5.584;2023-08-07T01:04:07;4.55;;;1.88;;
67768;SDS011;54569;52.018;5.584;2023-08-07T01:06:33;5.13;;;1.80;;
67768;SDS011;54569;52.018;5.584;2023-08-07T01:08:59;8.82;;;1.85;;
67768;SDS011;54569;52.018;5.584;2023-08-07T01:11:34;7.65;;;2.25;;
67768;SDS011;54569;52.018;5.584;2023-08-07T01:14:13;6.25;;;1.92;;
67768;SDS011;54569;52.018;5.584;2023-08-07T01:16:48;3.67;;;1.70;;
67768;SDS011;54569;52.018;5.584;2023-08-07T01:19:25;7.47;;;1.95;;
67768;SDS011;54569;52.018;5.584;2023-08-07T01:22:11;5.85;;;1.67;;
67768;SDS011;54569;52.018;5.584;2023-08-07T01:24:42;5.70;;;1.75;;
67768;SDS011;54569;52.018;5.584;2023-08-07T01:35:30;6.38;;;1.95;;
67768;SDS011;54569;52.018;5.584;2023-08-07T01:38:01;8.10;;;2.25;;
67768;SDS011;54569;52.018;5.584;2023-08-07T01:40:28;9.38;;;2.35;;
67768;SDS011;54569;52.018;5.584;2023-08-07T01:42:55;7.78;;;2.50;;
67768;SDS011;54569;52.018;5.584;2023-08-07T01:45:24;6.82;;;2.22;;
67768;SDS011;54569;52.018;5.584;2023-08-07T01:47:51;12.52;;;3.30;;
67768;SDS011;54569;52.018;5.584;2023-08-07T01:50:18;8.25;;;2.47;;
67768;SDS011;54569;52.018;5.584;2023-08-07T01:52:46;7.72;;;2.70;;
67768;SDS011;54569;52.018;5.584;2023-08-07T01:55:13;10.05;;;2.60;;
67768;SDS011;54569;52.018;5.584;2023-08-07T01:57:49;9.18;;;2.47;;
67768;SDS011;54569;52.018;5.584;2023-08-07T02:00:14;9.70;;;2.72;;
67768;SDS011;54569;52.018;5.584;2023-08-07T02:02:40;4.35;;;1.70;;
67768;SDS011;54569;52.018;5.584;2023-08-07T02:05:06;7.63;;;1.88;;
67768;SDS011;54569;52.018;5.584;2023-08-07T02:07:32;8.07;;;2.55;;
67768;SDS011;54569;52.018;5.584;2023-08-07T02:10:00;7.70;;;2.20;;
67768;SDS011;54569;52.018;5.584;2023-08-07T02:12:26;6.03;;;1.85;;
67768;SDS011;54569;52.018;5.584;2023-08-07T02:14:52;9.20;;;1.98;;
67768;SDS011;54569;52.018;5.584;2023-08-07T02:17:20;9.00;;;1.88;;
67768;SDS011;54569;52.018;5.584;2023-08-07T02:19:47;8.68;;;2.33;;
67768;SDS011;54569;52.018;5.584;2023-08-07T02:22:13;6.40;;;1.92;;
67768;SDS011;54569;52.018;5.584;2023-08-07T02:24:38;10.63;;;2.08;;
67768;SDS011;54569;52.018;5.584;2023-08-07T02:27:05;6.00;;;2.15;;
67768;SDS011;54569;52.018;5.584;2023-08-07T02:29:31;9.48;;;1.90;;
67768;SDS011;54569;52.018;5.584;2023-08-07T02:31:59;10.10;;;2.60;;
67768;SDS011;54569;52.018;5.584;2023-08-07T02:34:28;7.22;;;2.45;;
67768;SDS011;54569;52.018;5.584;2023-08-07T02:36:54;7.78;;;1.80;;
67768;SDS011;54569;52.018;5.584;2023-08-07T02:39:20;6.40;;;2.03;;
67768;SDS011;54569;52.018;5.584;2023-08-07T02:41:45;11.10;;;2.08;;
67768;SDS011;54569;52.018;5.584;2023-08-07T02:44:11;9.15;;;2.60;;
67768;SDS011;54569;52.018;5.584;2023-08-07T02:46:37;8.32;;;2.83;;
67768;SDS011;54569;52.018;5.584;2023-08-07T02:49:03;6.82;;;1.92;;
67768;SDS011;54569;52.018;5.584;2023-08-07T02:51:30;10.75;;;2.00;;
67768;SDS011;54569;52.018;5.584;2023-08-07T02:53:57;8.23;;;2.63;;
67768;SDS011;54569;52.018;5.584;2023-08-07T02:56:23;7.25;;;1.77;;
67768;SDS011;54569;52.018;5.584;2023-08-07T02:58:48;8.05;;;2.17;;
67768;SDS011;54569;52.018;5.584;2023-08-07T03:01:14;6.55;;;1.80;;
67768;SDS011;54569;52.018;5.584;2023-08-07T03:03:40;9.93;;;2.30;;
67768;SDS011;54569;52.018;5.584;2023-08-07T03:06:05;7.53;;;2.05;;
67768;SDS011;54569;52.018;5.584;2023-08-07T03:08:31;4.82;;;1.85;;
67768;SDS011;54569;52.018;5.584;2023-08-07T03:10:57;6.45;;;1.63;;
67768;SDS011;54569;52.018;5.584;2023-08-07T03:13:24;9.93;;;2.30;;
67768;SDS011;54569;52.018;5.584;2023-08-07T03:15:58;8.18;;;1.98;;
67768;SDS011;54569;52.018;5.584;2023-08-07T03:18:24;6.57;;;2.40;;
67768;SDS011;54569;52.018;5.584;2023-08-07T03:20:50;7.60;;;2.47;;
67768;SDS011;54569;52.018;5.584;2023-08-07T03:23:15;5.82;;;2.47;;
67768;SDS011;54569;52.018;5.584;2023-08-07T03:25:41;6.70;;;2.55;;
67768;SDS011;54569;52.018;5.584;2023-08-07T03:28:07;7.57;;;2.05;;
67768;SDS011;54569;52.018;5.584;2023-08-07T03:30:33;5.03;;;1.90;;
67768;SDS011;54569;52.018;5.584;2023-08-07T03:32:58;5.68;;;2.03;;
67768;SDS011;54569;52.018;5.584;2023-08-07T03:35:24;6.78;;;1.85;;
67768;SDS011;54569;52.018;5.584;2023-08-07T03:37:50;4.68;;;1.83;;
67768;SDS011;54569;52.018;5.584;2023-08-07T03:40:16;8.05;;;1.75;;
67768;SDS011;54569;52.018;5.584;2023-08-07T03:42:42;5.03;;;1.90;;
67768;SDS011;54569;52.018;5.584;2023-08-07T03:45:10;7.75;;;1.70;;
67768;SDS011;54569;52.018;5.584;2023-08-07T03:47:35;5.47;;;2.10;;
67768;SDS011;54569;52.018;5.584;2023-08-07T03:50:01;4.30;;;1.65;;
67768;SDS011;54569;52.018;5.584;2023-08-07T03:52:28;5.15;;;1.55;;
67768;SDS011;54569;52.018;5.584;2023-08-07T03:54:55;4.13;;;1.55;;
67768;SDS011;54569;52.018;5.584;2023-08-07T03:57:20;5.95;;;1.70;;
67768;SDS011;54569;52.018;5.584;2023-08-07T03:59:48;5.43;;;1.70;;
67768;SDS011;54569;52.018;5.584;2023-08-07T04:02:13;4.72;;;1.60;;
67768;SDS011;54569;52.018;5.584;2023-08-07T04:04:39;5.70;;;1.42;;
67768;SDS011;54569;52.018;5.584;2023-08-07T04:07:05;6.18;;;1.95;;
67768;SDS011;54569;52.018;5.584;2023-08-07T04:09:31;5.18;;;1.63;;
67768;SDS011;54569;52.018;5.584;2023-08-07T04:11:57;5.15;;;1.60;;
67768;SDS011;54569;52.018;5.584;2023-08-07T04:14:23;5.55;;;1.88;;
67768;SDS011;54569;52.018;5.584;2023-08-07T04:16:49;4.65;;;1.70;;
67768;SDS011;54569;52.018;5.584;2023-08-07T04:19:14;6.40;;;2.40;;
67768;SDS011;54569;52.018;5.584;2023-08-07T04:21:40;7.38;;;1.85;;
67768;SDS011;54569;52.018;5.584;2023-08-07T04:24:08;7.40;;;1.77;;
67768;SDS011;54569;52.018;5.584;2023-08-07T04:26:36;6.95;;;2.22;;
67768;SDS011;54569;52.018;5.584;2023-08-07T04:29:02;8.20;;;2.10;;
67768;SDS011;54569;52.018;5.584;2023-08-07T04:31:28;6.30;;;2.03;;
67768;SDS011;54569;52.018;5.584;2023-08-07T04:33:56;5.43;;;2.00;;
67768;SDS011;54569;52.018;5.584;2023-08-07T04:36:22;5.78;;;2.30;;
67768;SDS011;54569;52.018;5.584;2023-08-07T04:38:49;3.72;;;1.85;;
67768;SDS011;54569;52.018;5.584;2023-08-07T04:41:15;7.82;;;2.15;;
67768;SDS011;54569;52.018;5.584;2023-08-07T04:43:40;8.43;;;2.00;;
67768;SDS011;54569;52.018;5.584;2023-08-07T04:46:08;7.00;;;2.03;;
67768;SDS011;54569;52.018;5.584;2023-08-07T04:48:35;10.75;;;2.20;;
67768;SDS011;54569;52.018;5.584;2023-08-07T04:51:01;9.85;;;2.45;;
67768;SDS011;54569;52.018;5.584;2023-08-07T04:53:27;9.02;;;2.53;;
67768;SDS011;54569;52.018;5.584;2023-08-07T04:55:53;9.32;;;2.30;;
67768;SDS011;54569;52.018;5.584;2023-08-07T04:58:19;6.43;;;2.15;;
67768;SDS011;54569;52.018;5.584;2023-08-07T05:00:44;10.00;;;2.42;;
67768;SDS011;54569;52.018;5.584;2023-08-07T05:03:10;7.57;;;2.15;;
67768;SDS011;54569;52.018;5.584;2023-08-07T05:05:36;7.22;;;2.15;;
67768;SDS011;54569;52.018;5.584;2023-08-07T05:08:01;6.30;;;2.05;;
67768;SDS011;54569;52.018;5.584;2023-08-07T05:10:27;9.95;;;2.55;;
67768;SDS011;54569;52.018;5.584;2023-08-07T05:12:53;8.15;;;2.40;;
67768;SDS011;54569;52.018;5.584;2023-08-07T05:15:24;7.55;;;2.50;;
67768;SDS011;54569;52.018;5.584;2023-08-07T05:17:50;7.35;;;2.42;;
67768;SDS011;54569;52.018;5.584;2023-08-07T05:20:17;5.68;;;2.20;;
67768;SDS011;54569;52.018;5.584;2023-08-07T05:22:43;5.55;;;2.35;;
67768;SDS011;54569;52.018;5.584;2023-08-07T05:25:09;6.80;;;2.42;;
67768;SDS011;54569;52.018;5.584;2023-08-07T05:27:36;10.82;;;2.80;;
67768;SDS011;54569;52.018;5.584;2023-08-07T05:30:02;10.63;;;2.38;;
67768;SDS011;54569;52.018;5.584;2023-08-07T05:32:29;7.38;;;2.15;;
67768;SDS011;54569;52.018;5.584;2023-08-07T05:34:55;4.38;;;2.22;;
67768;SDS011;54569;52.018;5.584;2023-08-07T05:37:20;11.68;;;2.25;;
67768;SDS011;54569;52.018;5.584;2023-08-07T05:39:46;6.47;;;2.00;;
67768;SDS011;54569;52.018;5.584;2023-08-07T05:42:12;5.80;;;2.30;;
67768;SDS011;54569;52.018;5.584;2023-08-07T05:44:38;4.45;;;1.80;;
67768;SDS011;54569;52.018;5.584;2023-08-07T05:47:04;5.55;;;1.80;;
67768;SDS011;54569;52.018;5.584;2023-08-07T05:49:30;7.72;;;2.08;;
67768;SDS011;54569;52.018;5.584;2023-08-07T05:51:56;3.58;;;1.80;;
67768;SDS011;54569;52.018;5.584;2023-08-07T05:54:24;6.10;;;1.83;;
67768;SDS011;54569;52.018;5.584;2023-08-07T05:56:50;5.25;;;2.05;;
67768;SDS011;54569;52.018;5.584;2023-08-07T05:59:15;2.88;;;1.63;;
67768;SDS011;54569;52.018;5.584;2023-08-07T06:01:41;3.70;;;1.80;;
67768;SDS011;54569;52.018;5.584;2023-08-07T06:04:07;6.38;;;1.92;;
67768;SDS011;54569;52.018;5.584;2023-08-07T06:06:34;5.35;;;1.90;;
67768;SDS011;54569;52.018;5.584;2023-08-07T06:09:01;8.93;;;2.08;;
67768;SDS011;54569;52.018;5.584;2023-08-07T06:11:28;3.70;;;1.92;;
67768;SDS011;54569;52.018;5.584;2023-08-07T06:13:54;8.85;;;2.05;;
67768;SDS011;54569;52.018;5.584;2023-08-07T06:16:19;7.13;;;2.17;;
67768;SDS011;54569;52.018;5.584;2023-08-07T06:18:45;12.25;;;2.50;;
67768;SDS011;54569;52.018;5.584;2023-08-07T06:21:11;7.90;;;2.60;;
67768;SDS011;54569;52.018;5.584;2023-08-07T06:23:37;7.55;;;2.53;;
67768;SDS011;54569;52.018;5.584;2023-08-07T06:26:02;5.40;;;1.67;;
67768;SDS011;54569;52.018;5.584;2023-08-07T06:28:33;9.73;;;2.55;;
67768;SDS011;54569;52.018;5.584;2023-08-07T06:31:02;7.60;;;2.20;;
67768;SDS011;54569;52.018;5.584;2023-08-07T06:33:28;11.23;;;2.78;;
67768;SDS011;54569;52.018;5.584;2023-08-07T06:35:54;10.88;;;3.08;;
67768;SDS011;54569;52.018;5.584;2023-08-07T06:38:20;7.75;;;2.38;;
67768;SDS011;54569;52.018;5.584;2023-08-07T06:40:46;8.95;;;2.50;;
67768;SDS011;54569;52.018;5.584;2023-08-07T06:43:12;7.78;;;2.60;;
67768;SDS011;54569;52.018;5.584;2023-08-07T06:45:37;8.18;;;2.55;;
67768;SDS011;54569;52.018;5.584;2023-08-07T06:48:03;8.10;;;2.55;;
67768;SDS011;54569;52.018;5.584;2023-08-07T06:50:29;10.02;;;2.80;;
67768;SDS011;54569;52.018;5.584;2023-08-07T06:52:54;8.77;;;2.55;;
67768;SDS011;54569;52.018;5.584;2023-08-07T06:55:20;6.45;;;2.38;;
67768;SDS011;54569;52.018;5.584;2023-08-07T06:57:46;8.50;;;2.58;;
67768;SDS011;54569;52.018;5.584;2023-08-07T07:00:12;5.70;;;2.47;;
67768;SDS011;54569;52.018;5.584;2023-08-07T07:02:38;8.23;;;2.60;;
67768;SDS011;54569;52.018;5.584;2023-08-07T07:05:04;11.45;;;2.40;;
67768;SDS011;54569;52.018;5.584;2023-08-07T07:07:30;6.55;;;2.30;;
67768;SDS011;54569;52.018;5.584;2023-08-07T07:09:56;5.82;;;2.35;;
67768;SDS011;54569;52.018;5.584;2023-08-07T07:12:23;8.05;;;2.78;;
67768;SDS011;54569;52.018;5.584;2023-08-07T07:14:49;7.57;;;2.67;;
67768;SDS011;54569;52.018;5.584;2023-08-07T07:17:14;8.68;;;2.55;;
67768;SDS011;54569;52.018;5.584;2023-08-07T07:19:40;12.50;;;3.25;;
67768;SDS011;54569;52.018;5.584;2023-08-07T07:22:06;7.55;;;2.80;;
67768;SDS011;54569;52.018;5.584;2023-08-07T07:24:31;12.80;;;2.85;;
67768;SDS011;54569;52.018;5.584;2023-08-07T07:26:57;12.07;;;3.03;;
67768;SDS011;54569;52.018;5.584;2023-08-07T07:29:22;10.90;;;3.10;;
67768;SDS011;54569;52.018;5.584;2023-08-07T07:31:49;10.52;;;3.03;;
67768;SDS011;54569;52.018;5.584;2023-08-07T07:34:15;8.98;;;2.60;;
67768;SDS011;54569;52.018;5.584;2023-08-07T07:36:41;7.03;;;2.70;;
67768;SDS011;54569;52.018;5.584;2023-08-07T07:39:06;7.45;;;2.20;;
67768;SDS011;54569;52.018;5.584;2023-08-07T07:41:32;9.07;;;3.00;;
67768;SDS011;54569;52.018;5.584;2023-08-07T07:43:58;8.13;;;2.42;;
67768;SDS011;54569;52.018;5.584;2023-08-07T07:46:24;8.63;;;2.67;;
67768;SDS011;54569;52.018;5.584;2023-08-07T07:48:49;6.68;;;2.50;;
67768;SDS011;54569;52.018;5.584;2023-08-07T07:51:15;5.80;;;2.58;;
67768;SDS011;54569;52.018;5.584;2023-08-07T07:53:41;5.32;;;2.42;;
67768;SDS011;54569;52.018;5.584;2023-08-07T07:56:06;6.68;;;2.65;;
67768;SDS011;54569;52.018;5.584;2023-08-07T07:58:32;4.97;;;2.53;;
67768;SDS011;54569;52.018;5.584;2023-08-07T08:00:58;7.75;;;3.40;;
67768;SDS011;54569;52.018;5.584;2023-08-07T08:03:23;8.10;;;2.80;;
67768;SDS011;54569;52.018;5.584;2023-08-07T08:05:50;9.82;;;3.03;;
67768;SDS011;54569;52.018;5.584;2023-08-07T08:08:16;7.72;;;3.42;;
67768;SDS011;54569;52.018;5.584;2023-08-07T08:10:42;9.20;;;3.13;;
67768;SDS011;54569;52.018;5.584;2023-08-07T08:13:09;6.40;;;3.00;;
67768;SDS011;54569;52.018;5.584;2023-08-07T08:15:35;8.55;;;3.05;;
67768;SDS011;54569;52.018;5.584;2023-08-07T08:18:01;9.95;;;3.42;;
67768;SDS011;54569;52.018;5.584;2023-08-07T08:20:27;10.43;;;3.55;;
67768;SDS011;54569;52.018;5.584;2023-08-07T08:22:55;8.02;;;3.03;;
67768;SDS011;54569;52.018;5.584;2023-08-07T08:25:20;9.00;;;3.15;;
67768;SDS011;54569;52.018;5.584;2023-08-07T08:27:46;6.13;;;2.80;;
67768;SDS011;54569;52.018;5.584;2023-08-07T08:30:12;13.43;;;3.22;;
67768;SDS011;54569;52.018;5.584;2023-08-07T08:32:38;8.80;;;3.22;;
67768;SDS011;54569;52.018;5.584;2023-08-07T08:35:04;11.50;;;3.47;;
67768;SDS011;54569;52.018;5.584;2023-08-07T08:37:31;11.82;;;3.05;;
67768;SDS011;54569;52.018;5.584;2023-08-07T08:39:56;9.52;;;3.10;;
67768;SDS011;54569;52.018;5.584;2023-08-07T08:42:22;9.68;;;2.63;;
67768;SDS011;54569;52.018;5.584;2023-08-07T08:44:52;9.15;;;2.63;;
67768;SDS011;54569;52.018;5.584;2023-08-07T08:47:20;6.53;;;2.25;;
67768;SDS011;54569;52.018;5.584;2023-08-07T08:49:49;5.93;;;2.47;;
67768;SDS011;54569;52.018;5.584;2023-08-07T08:52:16;7.75;;;2.28;;
67768;SDS011;54569;52.018;5.584;2023-08-07T08:54:42;8.80;;;2.88;;
67768;SDS011;54569;52.018;5.584;2023-08-07T08:57:09;8.52;;;2.75;;
67768;SDS011;54569;52.018;5.584;2023-08-07T08:59:36;6.95;;;2.15;;
67768;SDS011;54569;52.018;5.584;2023-08-07T09:02:02;10.32;;;2.70;;
67768;SDS011;54569;52.018;5.584;2023-08-07T09:04:29;9.38;;;2.40;;
67768;SDS011;54569;52.018;5.584;2023-08-07T09:06:55;12.15;;;2.72;;
67768;SDS011;54569;52.018;5.584;2023-08-07T09:09:20;8.88;;;2.50;;
67768;SDS011;54569;52.018;5.584;2023-08-07T09:11:47;14.27;;;3.00;;
67768;SDS011;54569;52.018;5.584;2023-08-07T09:14:16;7.57;;;2.55;;
67768;SDS011;54569;52.018;5.584;2023-08-07T09:16:45;10.35;;;2.50;;
67768;SDS011;54569;52.018;5.584;2023-08-07T09:19:13;6.30;;;2.10;;
67768;SDS011;54569;52.018;5.584;2023-08-07T09:21:39;8.35;;;2.90;;
67768;SDS011;54569;52.018;5.584;2023-08-07T09:24:05;6.95;;;2.40;;
67768;SDS011;54569;52.018;5.584;2023-08-07T09:26:34;6.78;;;2.30;;
67768;SDS011;54569;52.018;5.584;2023-08-07T09:28:59;9.27;;;2.17;;
67768;SDS011;54569;52.018;5.584;2023-08-07T09:31:28;7.00;;;2.20;;
67768;SDS011;54569;52.018;5.584;2023-08-07T09:34:00;6.25;;;2.50;;
67768;SDS011;54569;52.018;5.584;2023-08-07T09:36:29;6.78;;;2.70;;
67768;SDS011;54569;52.018;5.584;2023-08-07T09:39:02;8.13;;;2.13;;
67768;SDS011;54569;52.018;5.584;2023-08-07T09:41:31;11.75;;;2.70;;
67768;SDS011;54569;52.018;5.584;2023-08-07T09:43:57;6.13;;;2.42;;
67768;SDS011;54569;52.018;5.584;2023-08-07T09:46:23;6.53;;;2.03;;
67768;SDS011;54569;52.018;5.584;2023-08-07T09:48:51;7.38;;;1.85;;
67768;SDS011;54569;52.018;5.584;2023-08-07T09:51:16;8.75;;;2.30;;
67768;SDS011;54569;52.018;5.584;2023-08-07T09:53:42;4.63;;;2.03;;
67768;SDS011;54569;52.018;5.584;2023-08-07T09:56:08;7.53;;;2.08;;
67768;SDS011;54569;52.018;5.584;2023-08-07T09:58:34;5.28;;;2.10;;
67768;SDS011;54569;52.018;5.584;2023-08-07T10:01:00;5.65;;;2.15;;
67768;SDS011;54569;52.018;5.584;2023-08-07T10:03:28;10.88;;;2.38;;
67768;SDS011;54569;52.018;5.584;2023-08-07T10:05:55;8.98;;;2.22;;
67768;SDS011;54569;52.018;5.584;2023-08-07T10:08:21;6.85;;;1.77;;
67768;SDS011;54569;52.018;5.584;2023-08-07T10:10:47;6.28;;;2.00;;
67768;SDS011;54569;52.018;5.584;2023-08-07T10:13:13;6.05;;;1.80;;
67768;SDS011;54569;52.018;5.584;2023-08-07T10:15:39;5.57;;;2.10;;
67768;SDS011;54569;52.018;5.584;2023-08-07T10:18:07;4.85;;;2.13;;
67768;SDS011;54569;52.018;5.584;2023-08-07T10:20:36;3.97;;;1.75;;
67768;SDS011;54569;52.018;5.584;2023-08-07T10:23:08;5.82;;;2.13;;
67768;SDS011;54569;52.018;5.584;2023-08-07T10:28:11;6.30;;;2.42;;
67768;SDS011;54569;52.018;5.584;2023-08-07T10:30:39;7.38;;;2.00;;
67768;SDS011;54569;52.018;5.584;2023-08-07T10:33:07;5.30;;;2.20;;
67768;SDS011;54569;52.018;5.584;2023-08-07T10:35:34;7.63;;;1.67;;
67768;SDS011;54569;52.018;5.584;2023-08-07T10:38:07;5.45;;;1.83;;
67768;SDS011;54569;52.018;5.584;2023-08-07T10:40:34;4.28;;;1.88;;
67768;SDS011;54569;52.018;5.584;2023-08-07T10:43:20;7.00;;;1.90;;
67768;SDS011;54569;52.018;5.584;2023-08-07T10:45:48;4.93;;;1.90;;
67768;SDS011;54569;52.018;5.584;2023-08-07T10:48:17;5.88;;;2.05;;
67768;SDS011;54569;52.018;5.584;2023-08-07T10:53:32;6.18;;;2.10;;
67768;SDS011;54569;52.018;5.584;2023-08-07T10:56:07;7.32;;;1.70;;
67768;SDS011;54569;52.018;5.584;2023-08-07T10:58:35;6.40;;;2.10;;
67768;SDS011;54569;52.018;5.584;2023-08-07T11:03:59;4.95;;;2.03;;
67768;SDS011;54569;52.018;5.584;2023-08-07T11:06:31;5.10;;;2.03;;
67768;SDS011;54569;52.018;5.584;2023-08-07T11:08:57;6.45;;;1.95;;
67768;SDS011;54569;52.018;5.584;2023-08-07T11:14:05;3.75;;;1.63;;
67768;SDS011;54569;52.018;5.584;2023-08-07T11:16:32;6.55;;;2.38;;
67768;SDS011;54569;52.018;5.584;2023-08-07T11:18:59;9.90;;;2.47;;
67768;SDS011;54569;52.018;5.584;2023-08-07T11:21:25;5.93;;;2.53;;
67768;SDS011;54569;52.018;5.584;2023-08-07T11:23:51;9.18;;;2.30;;
67768;SDS011;54569;52.018;5.584;2023-08-07T11:26:17;4.90;;;1.92;;
67768;SDS011;54569;52.018;5.584;2023-08-07T11:28:47;4.20;;;1.83;;
67768;SDS011;54569;52.018;5.584;2023-08-07T11:31:13;7.22;;;2.10;;
67768;SDS011;54569;52.018;5.584;2023-08-07T11:33:39;4.85;;;2.05;;
67768;SDS011;54569;52.018;5.584;2023-08-07T11:36:12;4.22;;;1.70;;
67768;SDS011;54569;52.018;5.584;2023-08-07T11:41:08;3.65;;;1.42;;
67768;SDS011;54569;52.018;5.584;2023-08-07T11:43:34;4.93;;;1.83;;
67768;SDS011;54569;52.018;5.584;2023-08-07T11:46:01;6.78;;;1.80;;
67768;SDS011;54569;52.018;5.584;2023-08-07T11:48:32;4.30;;;1.77;;
67768;SDS011;54569;52.018;5.584;2023-08-07T11:50:59;5.75;;;2.05;;
67768;SDS011;54569;52.018;5.584;2023-08-07T11:53:26;5.82;;;1.83;;
67768;SDS011;54569;52.018;5.584;2023-08-07T11:58:27;8.52;;;1.85;;
67768;SDS011;54569;52.018;5.584;2023-08-07T12:00:58;8.32;;;1.85;;
67768;SDS011;54569;52.018;5.584;2023-08-07T12:03:29;3.20;;;1.80;;
67768;SDS011;54569;52.018;5.584;2023-08-07T12:05:58;5.75;;;2.00;;
67768;SDS011;54569;52.018;5.584;2023-08-07T12:08:33;6.53;;;1.90;;
67768;SDS011;54569;52.018;5.584;2023-08-07T12:11:00;7.97;;;2.10;;
67768;SDS011;54569;52.018;5.584;2023-08-07T12:13:40;6.60;;;1.92;;
67768;SDS011;54569;52.018;5.584;2023-08-07T12:16:08;7.20;;;2.30;;
67768;SDS011;54569;52.018;5.584;2023-08-07T12:18:34;5.53;;;1.83;;
67768;SDS011;54569;52.018;5.584;2023-08-07T12:21:03;5.00;;;2.05;;
67768;SDS011;54569;52.018;5.584;2023-08-07T12:23:34;5.85;;;2.20;;
67768;SDS011;54569;52.018;5.584;2023-08-07T12:26:00;6.03;;;1.98;;
67768;SDS011;54569;52.018;5.584;2023-08-07T12:28:27;8.07;;;2.45;;
67768;SDS011;54569;52.018;5.584;2023-08-07T12:30:52;7.57;;;2.30;;
67768;SDS011;54569;52.018;5.584;2023-08-07T12:33:18;7.93;;;2.30;;
67768;SDS011;54569;52.018;5.584;2023-08-07T12:35:44;7.57;;;2.00;;
67768;SDS011;54569;52.018;5.584;2023-08-07T12:38:11;7.57;;;2.40;;
67768;SDS011;54569;52.018;5.584;2023-08-07T12:40:39;6.75;;;2.05;;
67768;SDS011;54569;52.018;5.584;2023-08-07T12:43:06;5.90;;;1.70;;
67768;SDS011;54569;52.018;5.584;2023-08-07T12:45:32;5.28;;;2.08;;
67768;SDS011;54569;52.018;5.584;2023-08-07T12:47:58;5.90;;;1.92;;
67768;SDS011;54569;52.018;5.584;2023-08-07T12:50:24;8.55;;;2.03;;
67768;SDS011;54569;52.018;5.584;2023-08-07T12:52:51;3.75;;;1.80;;
67768;SDS011;54569;52.018;5.584;2023-08-07T12:55:16;6.10;;;2.13;;
67768;SDS011;54569;52.018;5.584;2023-08-07T12:57:42;7.25;;;1.85;;
67768;SDS011;54569;52.018;5.584;2023-08-07T13:00:12;4.00;;;2.13;;
67768;SDS011;54569;52.018;5.584;2023-08-07T13:02:40;3.88;;;1.63;;
67768;SDS011;54569;52.018;5.584;2023-08-07T13:05:07;2.20;;;1.63;;
67768;SDS011;54569;52.018;5.584;2023-08-07T13:07:34;5.38;;;1.60;;
67768;SDS011;54569;52.018;5.584;2023-08-07T13:10:00;7.03;;;1.98;;
67768;SDS011;54569;52.018;5.584;2023-08-07T13:12:25;4.10;;;1.90;;
67768;SDS011;54569;52.018;5.584;2023-08-07T13:14:52;3.67;;;1.52;;
67768;SDS011;54569;52.018;5.584;2023-08-07T13:17:18;3.25;;;1.52;;
67768;SDS011;54569;52.018;5.584;2023-08-07T13:19:44;3.88;;;1.75;;
67768;SDS011;54569;52.018;5.584;2023-08-07T13:22:09;5.18;;;2.20;;
67768;SDS011;54569;52.018;5.584;2023-08-07T13:24:35;2.97;;;1.33;;
67768;SDS011;54569;52.018;5.584;2023-08-07T13:27:01;4.50;;;1.58;;
67768;SDS011;54569;52.018;5.584;2023-08-07T13:29:28;3.83;;;1.38;;
67768;SDS011;54569;52.018;5.584;2023-08-07T13:31:55;4.95;;;1.45;;
67768;SDS011;54569;52.018;5.584;2023-08-07T13:34:21;3.70;;;1.60;;
67768;SDS011;54569;52.018;5.584;2023-08-07T13:36:46;5.32;;;1.55;;
67768;SDS011;54569;52.018;5.584;2023-08-07T13:39:12;3.92;;;1.50;;
67768;SDS011;54569;52.018;5.584;2023-08-07T13:41:38;2.33;;;1.50;;
67768;SDS011;54569;52.018;5.584;2023-08-07T13:44:04;6.18;;;1.63;;
67768;SDS011;54569;52.018;5.584;2023-08-07T13:46:30;3.75;;;1.48;;
67768;SDS011;54569;52.018;5.584;2023-08-07T13:48:55;4.20;;;1.77;;
67768;SDS011;54569;52.018;5.584;2023-08-07T13:51:21;5.10;;;1.88;;
67768;SDS011;54569;52.018;5.584;2023-08-07T13:53:47;2.63;;;1.35;;
67768;SDS011;54569;52.018;5.584;2023-08-07T13:56:12;3.08;;;1.55;;
67768;SDS011;54569;52.018;5.584;2023-08-07T13:58:39;3.67;;;1.60;;
67768;SDS011;54569;52.018;5.584;2023-08-07T14:01:04;1.33;;;1.15;;
67768;SDS011;54569;52.018;5.584;2023-08-07T14:03:30;5.80;;;1.60;;
67768;SDS011;54569;52.018;5.584;2023-08-07T14:05:56;2.20;;;1.35;;
67768;SDS011;54569;52.018;5.584;2023-08-07T14:08:22;4.63;;;1.35;;
67768;SDS011;54569;52.018;5.584;2023-08-07T14:10:48;3.13;;;1.40;;
67768;SDS011;54569;52.018;5.584;2023-08-07T14:13:14;4.55;;;1.20;;
67768;SDS011;54569;52.018;5.584;2023-08-07T14:15:40;3.20;;;1.20;;
67768;SDS011;54569;52.018;5.584;2023-08-07T14:18:06;2.30;;;1.42;;
67768;SDS011;54569;52.018;5.584;2023-08-07T14:20:32;3.08;;;1.35;;
67768;SDS011;54569;52.018;5.584;2023-08-07T14:22:58;3.10;;;1.30;;
67768;SDS011;54569;52.018;5.584;2023-08-07T14:25:24;3.22;;;1.33;;
67768;SDS011;54569;52.018;5.584;2023-08-07T14:27:49;3.42;;;1.30;;
67768;SDS011;54569;52.018;5.584;2023-08-07T14:30:15;1.95;;;1.10;;
67768;SDS011;54569;52.018;5.584;2023-08-07T14:32:41;2.47;;;1.23;;
67768;SDS011;54569;52.018;5.584;2023-08-07T14:35:12;2.15;;;1.65;;
67768;SDS011;54569;52.018;5.584;2023-08-07T14:37:39;2.05;;;1.30;;
67768;SDS011;54569;52.018;5.584;2023-08-07T14:40:05;2.15;;;1.23;;
67768;SDS011;54569;52.018;5.584;2023-08-07T14:42:31;2.50;;;1.45;;
67768;SDS011;54569;52.018;5.584;2023-08-07T14:44:57;3.13;;;1.42;;
67768;SDS011;54569;52.018;5.584;2023-08-07T14:47:23;2.28;;;1.67;;
67768;SDS011;54569;52.018;5.584;2023-08-07T14:49:49;2.55;;;1.48;;
67768;SDS011;54569;52.018;5.584;2023-08-07T14:52:15;4.38;;;1.90;;
67768;SDS011;54569;52.018;5.584;2023-08-07T14:54:41;5.82;;;1.75;;
67768;SDS011;54569;52.018;5.584;2023-08-07T14:57:07;3.97;;;1.30;;
67768;SDS011;54569;52.018;5.584;2023-08-07T14:59:33;2.40;;;1.50;;
67768;SDS011;54569;52.018;5.584;2023-08-07T15:01:58;2.08;;;1.40;;
67768;SDS011;54569;52.018;5.584;2023-08-07T15:04:24;3.55;;;1.75;;
67768;SDS011;54569;52.018;5.584;2023-08-07T15:06:50;2.70;;;1.50;;